sensor_id;sensor_type;location;lat;lon;timestamp;pressure;altitude;pressure_sealevel;temperature;humidity
20115;BME280;10218;42.874;25.320;2023-10-08T00:01:20;97482.50;;;10.07;100.00
20115;BME280;10218;42.874;25.320;2023-10-08T00:03:48;97483.50;;;9.98;100.00
20115;BME280;10218;42.874;25.320;2023-10-08T00:06:21;97463.97;;;9.98;100.00
20115;BME280;10218;42.874;25.320;2023-10-08T00:08:48;97467.31;;;10.00;100.00
20115;BME280;10218;42.874;25.320;2023-10-08T00:11:19;97478.84;;;10.08;100.00
20115;BME280;10218;42.874;25.320;2023-10-08T00:13:49;97476.13;;;10.34;100.00
20115;BME280;10218;42.874;25.320;2023-10-08T00:16:16;97464.13;;;10.38;100.00
20115;BME280;10218;42.874;25.320;2023-10-08T00:18:44;97467.12;;;10.43;100.00
20115;BME280;10218;42.874;25.320;2023-10-08T00:21:20;97463.41;;;10.20;100.00
20115;BME280;10218;42.874;25.320;2023-10-08T00:23:53;97458.97;;;10.53;100.00
20115;BME280;10218;42.874;25.320;2023-10-08T00:26:27;97456.66;;;10.08;100.00
20115;BME280;10218;42.874;25.320;2023-10-08T00:29:06;97453.63;;;9.95;100.00
20115;BME280;10218;42.874;25.320;2023-10-08T00:31:43;97445.56;;;9.86;100.00
20115;BME280;10218;42.874;25.320;2023-10-08T00:34:15;97449.66;;;9.65;100.00
20115;BME280;10218;42.874;25.320;2023-10-08T00:36:44;97441.28;;;9.94;100.00
20115;BME280;10218;42.874;25.320;2023-10-08T00:39:12;97440.44;;;10.35;100.00
20115;BME280;10218;42.874;25.320;2023-10-08T00:41:52;97435.09;;;10.43;100.00
20115;BME280;10218;42.874;25.320;2023-10-08T00:44:26;97425.41;;;10.42;100.00
20115;BME280;10218;42.874;25.320;2023-10-08T00:46:57;97424.22;;;10.28;100.00
20115;BME280;10218;42.874;25.320;2023-10-08T00:49:28;97420.41;;;10.47;100.00
20115;BME280;10218;42.874;25.320;2023-10-08T00:52:12;97423.44;;;10.60;100.00
20115;BME280;10218;42.874;25.320;2023-10-08T00:54:41;97422.75;;;10.58;100.00
20115;BME280;10218;42.874;25.320;2023-10-08T00:57:20;97422.91;;;10.41;100.00
20115;BME280;10218;42.874;25.320;2023-10-08T00:59:49;97415.25;;;10.54;100.00
20115;BME280;10218;42.874;25.320;2023-10-08T01:02:26;97414.28;;;10.13;100.00
20115;BME280;10218;42.874;25.320;2023-10-08T01:05:14;97411.31;;;10.16;100.00
20115;BME280;10218;42.874;25.320;2023-10-08T01:07:46;97413.91;;;9.92;100.00
20115;BME280;10218;42.874;25.320;2023-10-08T01:10:18;97402.59;;;10.06;100.00
20115;BME280;10218;42.874;25.320;2023-10-08T01:12:48;97406.94;;;9.99;100.00
20115;BME280;10218;42.874;25.320;2023-10-08T01:15:21;97407.50;;;9.76;100.00
20115;BME280;10218;42.874;25.320;2023-10-08T01:17:56;97408.75;;;9.98;100.00
20115;BME280;10218;42.874;25.320;2023-10-08T01:20:42;97397.53;;;9.86;100.00
20115;BME280;10218;42.874;25.320;2023-10-08T01:23:15;97407.69;;;9.41;100.00
20115;BME280;10218;42.874;25.320;2023-10-08T01:25:49;97398.12;;;9.30;100.00
20115;BME280;10218;42.874;25.320;2023-10-08T01:28:24;97410.59;;;9.98;100.00
20115;BME280;10218;42.874;25.320;2023-10-08T01:30:58;97401.19;;;10.36;100.00
20115;BME280;10218;42.874;25.320;2023-10-08T01:33:31;97413.72;;;10.43;100.00
20115;BME280;10218;42.874;25.320;2023-10-08T01:35:59;97397.03;;;10.41;100.00
20115;BME280;10218;42.874;25.320;2023-10-08T01:38:31;97405.28;;;10.14;100.00
20115;BME280;10218;42.874;25.320;2023-10-08T01:41:00;97403.25;;;10.00;100.00
20115;BME280;10218;42.874;25.320;2023-10-08T01:43:32;97399.91;;;9.90;100.00
20115;BME280;10218;42.874;25.320;2023-10-08T01:46:02;97402.09;;;9.60;100.00
20115;BME280;10218;42.874;25.320;2023-10-08T01:48:30;97404.25;;;10.07;100.00
20115;BME280;10218;42.874;25.320;2023-10-08T01:51:05;97404.84;;;10.26;100.00
20115;BME280;10218;42.874;25.320;2023-10-08T01:53:55;97407.84;;;10.23;100.00
20115;BME280;10218;42.874;25.320;2023-10-08T01:56:25;97407.56;;;9.93;100.00
20115;BME280;10218;42.874;25.320;2023-10-08T01:58:52;97397.72;;;9.93;100.00
20115;BME280;10218;42.874;25.320;2023-10-08T02:01:20;97406.53;;;9.85;100.00
20115;BME280;10218;42.874;25.320;2023-10-08T02:03:47;97399.03;;;10.39;100.00
20115;BME280;10218;42.874;25.320;2023-10-08T02:06:15;97400.38;;;10.76;100.00
20115;BME280;10218;42.874;25.320;2023-10-08T02:08:42;97393.03;;;10.45;100.00
20115;BME280;10218;42.874;25.320;2023-10-08T02:11:09;97393.00;;;10.37;100.00
20115;BME280;10218;42.874;25.320;2023-10-08T02:13:37;97394.69;;;9.46;100.00
20115;BME280;10218;42.874;25.320;2023-10-08T02:16:04;97396.97;;;9.33;100.00
20115;BME280;10218;42.874;25.320;2023-10-08T02:18:31;97393.81;;;9.04;100.00
20115;BME280;10218;42.874;25.320;2023-10-08T02:21:00;97394.69;;;9.38;100.00
20115;BME280;10218;42.874;25.320;2023-10-08T02:23:27;97399.22;;;9.20;100.00
20115;BME280;10218;42.874;25.320;2023-10-08T02:25:54;97383.97;;;9.04;100.00
20115;BME280;10218;42.874;25.320;2023-10-08T02:28:22;97379.44;;;9.22;100.00
20115;BME280;10218;42.874;25.320;2023-10-08T02:30:51;97395.37;;;9.14;100.00
20115;BME280;10218;42.874;25.320;2023-10-08T02:33:18;97391.06;;;9.21;100.00
20115;BME280;10218;42.874;25.320;2023-10-08T02:35:46;97388.66;;;9.36;100.00
20115;BME280;10218;42.874;25.320;2023-10-08T02:38:17;97386.59;;;9.22;100.00
20115;BME280;10218;42.874;25.320;2023-10-08T02:40:48;97382.56;;;9.18;100.00
20115;BME280;10218;42.874;25.320;2023-10-08T02:43:16;97384.75;;;8.96;100.00
20115;BME280;10218;42.874;25.320;2023-10-08T02:45:44;97387.09;;;8.99;100.00
20115;BME280;10218;42.874;25.320;2023-10-08T02:48:16;97370.50;;;9.06;100.00
20115;BME280;10218;42.874;25.320;2023-10-08T02:50:44;97374.22;;;9.13;100.00
20115;BME280;10218;42.874;25.320;2023-10-08T02:53:12;97372.22;;;8.89;100.00
20115;BME280;10218;42.874;25.320;2023-10-08T02:55:45;97367.16;;;8.78;100.00
20115;BME280;10218;42.874;25.320;2023-10-08T02:58:13;97382.09;;;8.96;100.00
20115;BME280;10218;42.874;25.320;2023-10-08T03:00:47;97379.03;;;8.66;100.00
20115;BME280;10218;42.874;25.320;2023-10-08T03:03:18;97374.13;;;8.79;100.00
20115;BME280;10218;42.874;25.320;2023-10-08T03:05:51;97372.44;;;8.95;100.00
20115;BME280;10218;42.874;25.320;2023-10-08T03:08:19;97370.19;;;8.83;100.00
20115;BME280;10218;42.874;25.320;2023-10-08T03:10:51;97367.56;;;8.65;100.00
20115;BME280;10218;42.874;25.320;2023-10-08T03:13:22;97370.06;;;8.67;100.00
20115;BME280;10218;42.874;25.320;2023-10-08T03:15:50;97375.62;;;8.73;100.00
20115;BME280;10218;42.874;25.320;2023-10-08T03:18:27;97365.38;;;8.86;100.00
20115;BME280;10218;42.874;25.320;2023-10-08T03:21:04;97363.37;;;8.63;100.00
20115;BME280;10218;42.874;25.320;2023-10-08T03:23:32;97367.69;;;8.64;100.00
20115;BME280;10218;42.874;25.320;2023-10-08T03:26:03;97364.00;;;8.56;100.00
20115;BME280;10218;42.874;25.320;2023-10-08T03:28:55;97355.78;;;8.68;100.00
20115;BME280;10218;42.874;25.320;2023-10-08T03:31:25;97352.19;;;8.59;100.00
20115;BME280;10218;42.874;25.320;2023-10-08T03:34:11;97352.62;;;8.72;100.00
20115;BME280;10218;42.874;25.320;2023-10-08T03:36:42;97357.03;;;8.81;100.00
20115;BME280;10218;42.874;25.320;2023-10-08T03:39:15;97348.34;;;8.79;100.00
20115;BME280;10218;42.874;25.320;2023-10-08T03:41:45;97349.16;;;8.54;100.00
20115;BME280;10218;42.874;25.320;2023-10-08T03:44:25;97342.22;;;8.61;100.00
20115;BME280;10218;42.874;25.320;2023-10-08T03:46:52;97344.38;;;8.57;100.00
20115;BME280;10218;42.874;25.320;2023-10-08T03:49:19;97352.69;;;8.37;100.00
20115;BME280;10218;42.874;25.320;2023-10-08T03:51:50;97347.13;;;8.48;100.00
20115;BME280;10218;42.874;25.320;2023-10-08T03:54:21;97357.69;;;8.40;100.00
20115;BME280;10218;42.874;25.320;2023-10-08T03:56:56;97350.91;;;8.63;100.00
20115;BME280;10218;42.874;25.320;2023-10-08T03:59:24;97351.78;;;8.72;100.00
20115;BME280;10218;42.874;25.320;2023-10-08T04:02:07;97338.88;;;8.59;100.00
20115;BME280;10218;42.874;25.320;2023-10-08T04:04:42;97350.00;;;8.54;100.00
20115;BME280;10218;42.874;25.320;2023-10-08T04:07:21;97345.00;;;8.51;100.00
20115;BME280;10218;42.874;25.320;2023-10-08T04:10:21;97341.53;;;8.59;100.00
20115;BME280;10218;42.874;25.320;2023-10-08T04:13:06;97340.87;;;8.57;100.00
20115;BME280;10218;42.874;25.320;2023-10-08T04:15:37;97335.94;;;8.44;100.00
20115;BME280;10218;42.874;25.320;2023-10-08T04:18:08;97354.59;;;8.70;100.00
20115;BME280;10218;42.874;25.320;2023-10-08T04:20:35;97358.34;;;8.59;100.00
20115;BME280;10218;42.874;25.320;2023-10-08T04:23:07;97353.03;;;8.59;100.00
20115;BME280;10218;42.874;25.320;2023-10-08T04:25:45;97357.63;;;8.75;100.00
20115;BME280;10218;42.874;25.320;2023-10-08T04:28:14;97352.28;;;8.67;100.00
20115;BME280;10218;42.874;25.320;2023-10-08T04:30:44;97345.00;;;8.77;100.00
20115;BME280;10218;42.874;25.320;2023-10-08T04:33:14;97348.78;;;8.92;100.00
20115;BME280;10218;42.874;25.320;2023-10-08T04:35:43;97352.66;;;8.98;100.00
20115;BME280;10218;42.874;25.320;2023-10-08T04:38:21;97332.72;;;8.84;100.00
20115;BME280;10218;42.874;25.320;2023-10-08T04:40:55;97353.75;;;8.87;100.00
20115;BME280;10218;42.874;25.320;2023-10-08T04:43:28;97348.50;;;8.78;100.00
20115;BME280;10218;42.874;25.320;2023-10-08T04:45:58;97331.56;;;8.61;100.00
20115;BME280;10218;42.874;25.320;2023-10-08T04:48:25;97351.56;;;8.65;100.00
20115;BME280;10218;42.874;25.320;2023-10-08T04:50:56;97329.12;;;8.68;100.00
20115;BME280;10218;42.874;25.320;2023-10-08T04:53:31;97343.59;;;8.65;100.00
20115;BME280;10218;42.874;25.320;2023-10-08T04:56:08;97335.38;;;8.58;100.00
20115;BME280;10218;42.874;25.320;2023-10-08T04:58:49;97356.28;;;8.71;100.00
20115;BME280;10218;42.874;25.320;2023-10-08T05:01:18;97343.97;;;8.70;100.00
20115;BME280;10218;42.874;25.320;2023-10-08T05:03:48;97342.34;;;8.77;100.00
20115;BME280;10218;42.874;25.320;2023-10-08T05:06:42;97346.72;;;8.86;100.00
20115;BME280;10218;42.874;25.320;2023-10-08T05:09:13;97345.41;;;8.90;100.00
20115;BME280;10218;42.874;25.320;2023-10-08T05:11:47;97341.25;;;9.14;100.00
20115;BME280;10218;42.874;25.320;2023-10-08T05:14:23;97329.28;;;9.26;100.00
20115;BME280;10218;42.874;25.320;2023-10-08T05:17:04;97344.38;;;9.43;100.00
20115;BME280;10218;42.874;25.320;2023-10-08T05:19:39;97342.50;;;9.01;100.00
20115;BME280;10218;42.874;25.320;2023-10-08T05:22:13;97321.91;;;9.54;100.00
20115;BME280;10218;42.874;25.320;2023-10-08T05:24:57;97335.16;;;9.29;100.00
20115;BME280;10218;42.874;25.320;2023-10-08T05:27:44;97330.63;;;9.30;100.00
20115;BME280;10218;42.874;25.320;2023-10-08T05:33:07;97327.47;;;9.26;100.00
20115;BME280;10218;42.874;25.320;2023-10-08T05:35:46;97321.03;;;9.45;100.00
20115;BME280;10218;42.874;25.320;2023-10-08T05:38:16;97328.78;;;9.72;100.00
20115;BME280;10218;42.874;25.320;2023-10-08T05:40:52;97332.50;;;9.79;100.00
20115;BME280;10218;42.874;25.320;2023-10-08T05:43:27;97318.56;;;10.26;100.00
20115;BME280;10218;42.874;25.320;2023-10-08T05:48:53;97315.84;;;10.83;100.00
20115;BME280;10218;42.874;25.320;2023-10-08T05:51:36;97329.66;;;11.10;100.00
20115;BME280;10218;42.874;25.320;2023-10-08T05:54:21;97320.03;;;11.40;100.00
20115;BME280;10218;42.874;25.320;2023-10-08T05:57:00;97310.53;;;11.77;100.00
20115;BME280;10218;42.874;25.320;2023-10-08T05:59:48;97324.31;;;11.57;100.00
20115;BME280;10218;42.874;25.320;2023-10-08T06:02:31;97326.56;;;12.30;100.00
20115;BME280;10218;42.874;25.320;2023-10-08T06:05:09;97322.66;;;12.18;100.00
20115;BME280;10218;42.874;25.320;2023-10-08T06:07:53;97326.94;;;12.65;100.00
20115;BME280;10218;42.874;25.320;2023-10-08T06:13:09;97316.22;;;13.02;100.00
20115;BME280;10218;42.874;25.320;2023-10-08T06:15:42;97314.12;;;13.12;100.00
20115;BME280;10218;42.874;25.320;2023-10-08T06:18:16;97318.87;;;13.25;100.00
20115;BME280;10218;42.874;25.320;2023-10-08T06:20:46;97316.91;;;13.48;100.00
20115;BME280;10218;42.874;25.320;2023-10-08T06:23:17;97306.38;;;13.83;100.00
20115;BME280;10218;42.874;25.320;2023-10-08T06:25:47;97308.16;;;14.11;100.00
20115;BME280;10218;42.874;25.320;2023-10-08T06:28:20;97308.16;;;14.47;100.00
20115;BME280;10218;42.874;25.320;2023-10-08T06:30:49;97308.25;;;14.88;100.00
20115;BME280;10218;42.874;25.320;2023-10-08T06:33:21;97308.66;;;14.85;100.00
20115;BME280;10218;42.874;25.320;2023-10-08T06:35:49;97300.00;;;15.24;100.00
20115;BME280;10218;42.874;25.320;2023-10-08T06:38:29;97307.16;;;15.73;100.00
20115;BME280;10218;42.874;25.320;2023-10-08T06:41:02;97301.16;;;15.77;100.00
20115;BME280;10218;42.874;25.320;2023-10-08T06:43:36;97297.78;;;16.43;100.00
20115;BME280;10218;42.874;25.320;2023-10-08T06:46:04;97299.44;;;17.29;100.00
20115;BME280;10218;42.874;25.320;2023-10-08T06:48:34;97296.47;;;17.64;100.00
20115;BME280;10218;42.874;25.320;2023-10-08T06:51:01;97295.31;;;18.67;56.96
20115;BME280;10218;42.874;25.320;2023-10-08T06:53:40;97289.38;;;18.83;51.19
20115;BME280;10218;42.874;25.320;2023-10-08T06:56:08;97292.66;;;19.53;50.02
20115;BME280;10218;42.874;25.320;2023-10-08T06:58:39;97293.78;;;20.00;48.27
20115;BME280;10218;42.874;25.320;2023-10-08T07:01:12;97287.34;;;20.13;45.53
20115;BME280;10218;42.874;25.320;2023-10-08T07:03:40;97284.81;;;19.99;46.23
20115;BME280;10218;42.874;25.320;2023-10-08T07:06:07;97284.22;;;20.57;45.02
20115;BME280;10218;42.874;25.320;2023-10-08T07:08:44;97285.66;;;20.60;45.13
20115;BME280;10218;42.874;25.320;2023-10-08T07:11:22;97276.97;;;20.81;45.28
20115;BME280;10218;42.874;25.320;2023-10-08T07:13:50;97282.56;;;21.21;41.46
20115;BME280;10218;42.874;25.320;2023-10-08T07:16:17;97285.25;;;21.44;40.51
20115;BME280;10218;42.874;25.320;2023-10-08T07:18:45;97281.09;;;21.65;40.92
20115;BME280;10218;42.874;25.320;2023-10-08T07:21:19;97275.81;;;21.58;40.74
20115;BME280;10218;42.874;25.320;2023-10-08T07:23:50;97271.66;;;21.56;41.99
20115;BME280;10218;42.874;25.320;2023-10-08T07:26:25;97271.81;;;21.38;38.94
20115;BME280;10218;42.874;25.320;2023-10-08T07:28:53;97268.62;;;22.32;39.06
20115;BME280;10218;42.874;25.320;2023-10-08T07:31:22;97271.47;;;22.26;39.81
20115;BME280;10218;42.874;25.320;2023-10-08T07:33:53;97264.41;;;23.03;39.21
20115;BME280;10218;42.874;25.320;2023-10-08T07:36:26;97271.03;;;22.90;39.09
20115;BME280;10218;42.874;25.320;2023-10-08T07:38:58;97264.87;;;23.50;37.64
20115;BME280;10218;42.874;25.320;2023-10-08T07:41:26;97254.09;;;23.05;37.39
20115;BME280;10218;42.874;25.320;2023-10-08T07:43:54;97253.72;;;23.95;37.05
20115;BME280;10218;42.874;25.320;2023-10-08T07:46:26;97252.06;;;23.94;34.79
20115;BME280;10218;42.874;25.320;2023-10-08T07:48:56;97245.44;;;24.34;35.49
20115;BME280;10218;42.874;25.320;2023-10-08T07:51:26;97236.84;;;24.20;34.96
20115;BME280;10218;42.874;25.320;2023-10-08T07:53:54;97238.97;;;24.40;32.70
20115;BME280;10218;42.874;25.320;2023-10-08T07:56:23;97241.37;;;24.36;32.21
20115;BME280;10218;42.874;25.320;2023-10-08T07:58:53;97240.78;;;25.25;31.28
20115;BME280;10218;42.874;25.320;2023-10-08T08:01:24;97245.88;;;25.53;30.78
20115;BME280;10218;42.874;25.320;2023-10-08T08:03:54;97240.97;;;25.08;30.87
20115;BME280;10218;42.874;25.320;2023-10-08T08:06:21;97240.88;;;25.40;30.39
20115;BME280;10218;42.874;25.320;2023-10-08T08:08:49;97234.22;;;24.57;30.43
20115;BME280;10218;42.874;25.320;2023-10-08T08:11:16;97235.63;;;24.91;30.47
20115;BME280;10218;42.874;25.320;2023-10-08T08:13:44;97219.37;;;26.21;29.06
20115;BME280;10218;42.874;25.320;2023-10-08T08:16:12;97227.31;;;25.55;29.77
20115;BME280;10218;42.874;25.320;2023-10-08T08:18:52;97218.28;;;25.54;30.28
20115;BME280;10218;42.874;25.320;2023-10-08T08:21:23;97224.22;;;25.04;29.77
20115;BME280;10218;42.874;25.320;2023-10-08T08:23:51;97208.88;;;25.97;29.20
20115;BME280;10218;42.874;25.320;2023-10-08T08:26:21;97194.84;;;25.74;29.49
20115;BME280;10218;42.874;25.320;2023-10-08T08:29:04;97193.41;;;25.56;29.64
20115;BME280;10218;42.874;25.320;2023-10-08T08:31:31;97200.19;;;25.48;30.47
20115;BME280;10218;42.874;25.320;2023-10-08T08:33:59;97194.25;;;27.10;28.76
20115;BME280;10218;42.874;25.320;2023-10-08T08:36:30;97188.22;;;26.88;28.51
20115;BME280;10218;42.874;25.320;2023-10-08T08:39:00;97182.94;;;26.10;29.57
20115;BME280;10218;42.874;25.320;2023-10-08T08:41:28;97192.81;;;27.43;28.98
20115;BME280;10218;42.874;25.320;2023-10-08T08:43:55;97189.31;;;26.51;29.11
20115;BME280;10218;42.874;25.320;2023-10-08T08:46:33;97195.34;;;26.48;28.91
20115;BME280;10218;42.874;25.320;2023-10-08T08:49:06;97180.53;;;26.64;28.96
20115;BME280;10218;42.874;25.320;2023-10-08T08:51:35;97195.25;;;27.44;28.55
20115;BME280;10218;42.874;25.320;2023-10-08T08:54:03;97183.41;;;27.64;27.90
20115;BME280;10218;42.874;25.320;2023-10-08T08:56:38;97161.78;;;28.50;27.46
20115;BME280;10218;42.874;25.320;2023-10-08T08:59:10;97183.22;;;28.54;27.06
20115;BME280;10218;42.874;25.320;2023-10-08T09:01:41;97169.56;;;28.43;27.98
20115;BME280;10218;42.874;25.320;2023-10-08T09:04:09;97162.00;;;27.66;27.30
20115;BME280;10218;42.874;25.320;2023-10-08T09:06:37;97167.66;;;27.90;27.20
20115;BME280;10218;42.874;25.320;2023-10-08T09:09:07;97162.16;;;28.44;27.13
20115;BME280;10218;42.874;25.320;2023-10-08T09:11:50;97157.41;;;27.51;27.69
20115;BME280;10218;42.874;25.320;2023-10-08T09:14:23;97157.56;;;27.80;27.53
20115;BME280;10218;42.874;25.320;2023-10-08T09:16:56;97148.00;;;28.56;27.29
20115;BME280;10218;42.874;25.320;2023-10-08T09:19:24;97151.47;;;28.37;26.26
20115;BME280;10218;42.874;25.320;2023-10-08T09:22:09;97149.59;;;29.72;26.53
20115;BME280;10218;42.874;25.320;2023-10-08T09:24:39;97155.19;;;29.43;25.69
20115;BME280;10218;42.874;25.320;2023-10-08T09:27:09;97152.34;;;29.72;25.28
20115;BME280;10218;42.874;25.320;2023-10-08T09:29:41;97139.91;;;29.32;25.90
20115;BME280;10218;42.874;25.320;2023-10-08T09:32:10;97146.56;;;30.16;25.10
20115;BME280;10218;42.874;25.320;2023-10-08T09:34:38;97152.16;;;29.45;25.92
20115;BME280;10218;42.874;25.320;2023-10-08T09:37:05;97136.28;;;29.37;26.91
20115;BME280;10218;42.874;25.320;2023-10-08T09:39:32;97162.25;;;29.73;25.71
20115;BME280;10218;42.874;25.320;2023-10-08T09:42:03;97152.34;;;29.24;26.69
20115;BME280;10218;42.874;25.320;2023-10-08T09:44:33;97139.78;;;29.66;25.98
20115;BME280;10218;42.874;25.320;2023-10-08T09:47:08;97140.81;;;29.22;26.43
20115;BME280;10218;42.874;25.320;2023-10-08T09:49:57;97143.50;;;27.92;27.36
20115;BME280;10218;42.874;25.320;2023-10-08T09:52:33;97129.91;;;29.12;26.76
20115;BME280;10218;42.874;25.320;2023-10-08T09:55:08;97128.44;;;29.49;26.25
20115;BME280;10218;42.874;25.320;2023-10-08T09:57:37;97121.03;;;29.68;26.51
20115;BME280;10218;42.874;25.320;2023-10-08T10:00:06;97115.59;;;29.63;25.73
20115;BME280;10218;42.874;25.320;2023-10-08T10:02:42;97115.66;;;30.00;26.01
20115;BME280;10218;42.874;25.320;2023-10-08T10:05:18;97119.97;;;28.59;26.85
20115;BME280;10218;42.874;25.320;2023-10-08T10:07:48;97113.91;;;29.43;26.31
20115;BME280;10218;42.874;25.320;2023-10-08T10:10:29;97114.22;;;28.55;26.91
20115;BME280;10218;42.874;25.320;2023-10-08T10:13:05;97102.09;;;31.47;25.03
20115;BME280;10218;42.874;25.320;2023-10-08T10:15:36;97095.38;;;29.01;26.77
20115;BME280;10218;42.874;25.320;2023-10-08T10:20:45;97078.47;;;32.18;24.14
20115;BME280;10218;42.874;25.320;2023-10-08T10:26:33;97092.09;;;31.24;24.58
20115;BME280;10218;42.874;25.320;2023-10-08T10:31:53;97075.13;;;31.44;24.09
20115;BME280;10218;42.874;25.320;2023-10-08T10:34:23;97075.81;;;31.22;24.44
20115;BME280;10218;42.874;25.320;2023-10-08T10:36:58;97074.81;;;31.18;24.16
20115;BME280;10218;42.874;25.320;2023-10-08T10:39:27;97072.34;;;31.44;24.20
20115;BME280;10218;42.874;25.320;2023-10-08T10:41:56;97071.63;;;31.52;24.14
20115;BME280;10218;42.874;25.320;2023-10-08T10:44:48;97057.59;;;32.79;23.59
20115;BME280;10218;42.874;25.320;2023-10-08T10:47:18;97055.00;;;32.82;23.85
20115;BME280;10218;42.874;25.320;2023-10-08T10:49:47;97068.69;;;30.75;24.33
20115;BME280;10218;42.874;25.320;2023-10-08T10:52:29;97050.31;;;30.71;24.88
20115;BME280;10218;42.874;25.320;2023-10-08T10:54:59;97038.31;;;29.97;25.75
20115;BME280;10218;42.874;25.320;2023-10-08T10:57:27;97052.50;;;31.69;24.66
20115;BME280;10218;42.874;25.320;2023-10-08T11:00:05;97036.81;;;32.37;24.40
20115;BME280;10218;42.874;25.320;2023-10-08T11:02:45;97019.00;;;29.59;26.40
20115;BME280;10218;42.874;25.320;2023-10-08T11:05:16;97021.03;;;31.02;26.14
20115;BME280;10218;42.874;25.320;2023-10-08T11:07:47;97017.53;;;32.23;24.26
20115;BME280;10218;42.874;25.320;2023-10-08T11:10:15;97038.13;;;32.17;24.34
20115;BME280;10218;42.874;25.320;2023-10-08T11:12:42;97037.63;;;30.70;26.06
20115;BME280;10218;42.874;25.320;2023-10-08T11:15:14;97024.28;;;33.23;25.44
20115;BME280;10218;42.874;25.320;2023-10-08T11:17:44;97003.72;;;33.16;22.93
20115;BME280;10218;42.874;25.320;2023-10-08T11:20:28;97020.37;;;32.62;23.91
20115;BME280;10218;42.874;25.320;2023-10-08T11:22:59;96992.78;;;30.64;25.84
20115;BME280;10218;42.874;25.320;2023-10-08T11:25:58;97007.53;;;30.08;27.82
20115;BME280;10218;42.874;25.320;2023-10-08T11:28:33;97020.13;;;31.34;26.30
20115;BME280;10218;42.874;25.320;2023-10-08T11:31:03;97019.56;;;32.62;25.81
20115;BME280;10218;42.874;25.320;2023-10-08T11:33:42;97008.50;;;31.95;25.22
20115;BME280;10218;42.874;25.320;2023-10-08T11:36:10;97000.16;;;32.31;24.42
20115;BME280;10218;42.874;25.320;2023-10-08T11:38:46;96999.75;;;33.65;23.92
20115;BME280;10218;42.874;25.320;2023-10-08T11:41:18;97010.44;;;31.72;25.57
20115;BME280;10218;42.874;25.320;2023-10-08T11:43:49;97009.97;;;31.43;25.66
20115;BME280;10218;42.874;25.320;2023-10-08T11:46:25;96987.03;;;30.14;26.61
20115;BME280;10218;42.874;25.320;2023-10-08T11:48:54;96996.81;;;31.13;26.50
20115;BME280;10218;42.874;25.320;2023-10-08T11:51:25;97007.63;;;30.82;26.08
20115;BME280;10218;42.874;25.320;2023-10-08T11:53:54;96995.44;;;30.23;26.76
20115;BME280;10218;42.874;25.320;2023-10-08T11:56:21;96988.72;;;30.62;27.24
20115;BME280;10218;42.874;25.320;2023-10-08T11:58:50;96994.94;;;30.94;26.46
20115;BME280;10218;42.874;25.320;2023-10-08T12:01:18;96990.91;;;31.91;25.89
20115;BME280;10218;42.874;25.320;2023-10-08T12:03:45;96989.19;;;34.01;23.50
20115;BME280;10218;42.874;25.320;2023-10-08T12:06:13;96980.53;;;34.11;23.25
20115;BME280;10218;42.874;25.320;2023-10-08T12:08:47;96982.75;;;35.45;22.43
20115;BME280;10218;42.874;25.320;2023-10-08T12:11:14;96972.34;;;32.28;25.43
20115;BME280;10218;42.874;25.320;2023-10-08T12:13:42;96988.28;;;29.71;27.09
20115;BME280;10218;42.874;25.320;2023-10-08T12:16:14;96980.50;;;28.40;29.46
20115;BME280;10218;42.874;25.320;2023-10-08T12:18:50;96992.72;;;27.95;29.97
20115;BME280;10218;42.874;25.320;2023-10-08T12:21:26;96990.16;;;28.04;30.32
20115;BME280;10218;42.874;25.320;2023-10-08T12:24:00;96986.28;;;28.44;30.34
20115;BME280;10218;42.874;25.320;2023-10-08T12:26:32;96975.53;;;27.41;31.01
20115;BME280;10218;42.874;25.320;2023-10-08T12:28:59;96971.16;;;30.25;28.47
20115;BME280;10218;42.874;25.320;2023-10-08T12:31:27;96972.12;;;31.57;27.22
20115;BME280;10218;42.874;25.320;2023-10-08T12:33:56;96967.81;;;29.96;28.09
20115;BME280;10218;42.874;25.320;2023-10-08T12:36:27;96980.53;;;31.38;26.69
20115;BME280;10218;42.874;25.320;2023-10-08T12:38:59;96977.69;;;32.24;26.33
20115;BME280;10218;42.874;25.320;2023-10-08T12:41:34;96981.69;;;31.10;27.21
20115;BME280;10218;42.874;25.320;2023-10-08T12:44:05;96965.66;;;29.37;29.35
20115;BME280;10218;42.874;25.320;2023-10-08T12:46:34;96988.81;;;28.88;30.17
20115;BME280;10218;42.874;25.320;2023-10-08T12:49:02;96974.47;;;28.91;29.82
20115;BME280;10218;42.874;25.320;2023-10-08T12:51:30;96974.44;;;29.76;29.68
20115;BME280;10218;42.874;25.320;2023-10-08T12:53:59;96966.25;;;27.76;31.83
20115;BME280;10218;42.874;25.320;2023-10-08T12:56:35;96971.19;;;27.30;33.19
20115;BME280;10218;42.874;25.320;2023-10-08T12:59:16;96955.25;;;29.71;30.69
20115;BME280;10218;42.874;25.320;2023-10-08T13:01:50;96950.25;;;28.93;31.21
20115;BME280;10218;42.874;25.320;2023-10-08T13:04:18;96964.16;;;27.62;33.28
20115;BME280;10218;42.874;25.320;2023-10-08T13:06:54;96965.94;;;27.82;33.12
20115;BME280;10218;42.874;25.320;2023-10-08T13:09:24;96971.50;;;27.23;33.84
20115;BME280;10218;42.874;25.320;2023-10-08T13:11:52;96955.72;;;27.00;33.87
20115;BME280;10218;42.874;25.320;2023-10-08T13:14:19;96971.91;;;28.23;32.42
20115;BME280;10218;42.874;25.320;2023-10-08T13:16:49;96946.53;;;30.15;29.91
20115;BME280;10218;42.874;25.320;2023-10-08T13:19:20;96941.59;;;31.26;28.36
20115;BME280;10218;42.874;25.320;2023-10-08T13:21:50;96947.94;;;31.27;28.16
20115;BME280;10218;42.874;25.320;2023-10-08T13:24:20;96952.66;;;31.13;28.29
20115;BME280;10218;42.874;25.320;2023-10-08T13:26:49;96958.66;;;30.14;28.97
20115;BME280;10218;42.874;25.320;2023-10-08T13:29:16;96962.06;;;31.61;27.69
20115;BME280;10218;42.874;25.320;2023-10-08T13:31:45;96945.91;;;31.19;27.78